sensor_id;sensor_type;location;lat;lon;timestamp;P1;durP1;ratioP1;P2;durP2;ratioP2
57335;SDS011;43171;50.994;18.204;2023-03-23T00:09:08;10.50;;;8.60;;
57335;SDS011;43171;50.994;18.204;2023-03-23T00:19:04;5.80;;;5.20;;
57335;SDS011;43171;50.994;18.204;2023-03-23T00:28:59;11.10;;;7.10;;
57335;SDS011;43171;50.994;18.204;2023-03-23T00:38:49;11.20;;;6.70;;
57335;SDS011;43171;50.994;18.204;2023-03-23T00:48:37;10.50;;;4.50;;
57335;SDS011;43171;50.994;18.204;2023-03-23T00:58:27;10.30;;;6.20;;
57335;SDS011;43171;50.994;18.204;2023-03-23T01:00:53;13.70;;;8.80;;
57335;SDS011;43171;50.994;18.204;2023-03-23T01:10:38;10.70;;;7.60;;
57335;SDS011;43171;50.994;18.204;2023-03-23T01:20:22;13.50;;;8.40;;
57335;SDS011;43171;50.994;18.204;2023-03-23T01:30:05;22.30;;;8.00;;
57335;SDS011;43171;50.994;18.204;2023-03-23T01:39:55;15.30;;;8.70;;
57335;SDS011;43171;50.994;18.204;2023-03-23T01:49:43;27.00;;;12.10;;
57335;SDS011;43171;50.994;18.204;2023-03-23T01:59:30;14.10;;;9.40;;
57335;SDS011;43171;50.994;18.204;2023-03-23T02:09:14;18.20;;;11.70;;
57335;SDS011;43171;50.994;18.204;2023-03-23T02:19:16;22.10;;;8.70;;
57335;SDS011;43171;50.994;18.204;2023-03-23T02:40:53;10.80;;;8.70;;
57335;SDS011;43171;50.994;18.204;2023-03-23T02:50:38;11.80;;;8.00;;
57335;SDS011;43171;50.994;18.204;2023-03-23T03:00:27;13.80;;;8.30;;
57335;SDS011;43171;50.994;18.204;2023-03-23T03:10:18;15.80;;;9.80;;
57335;SDS011;43171;50.994;18.204;2023-03-23T03:20:10;25.80;;;14.90;;
57335;SDS011;43171;50.994;18.204;2023-03-23T03:29:59;20.80;;;9.10;;
57335;SDS011;43171;50.994;18.204;2023-03-23T03:40:07;11.60;;;8.10;;
57335;SDS011;43171;50.994;18.204;2023-03-23T03:49:54;11.70;;;7.30;;
57335;SDS011;43171;50.994;18.204;2023-03-23T03:59:37;10.50;;;8.70;;
57335;SDS011;43171;50.994;18.204;2023-03-23T04:09:20;14.90;;;8.40;;
57335;SDS011;43171;50.994;18.204;2023-03-23T04:19:03;14.40;;;11.60;;
57335;SDS011;43171;50.994;18.204;2023-03-23T04:28:50;49.80;;;14.60;;
57335;SDS011;43171;50.994;18.204;2023-03-23T04:38:35;42.30;;;15.70;;
57335;SDS011;43171;50.994;18.204;2023-03-23T04:48:24;30.70;;;12.90;;
57335;SDS011;43171;50.994;18.204;2023-03-23T04:58:09;9.00;;;7.60;;
57335;SDS011;43171;50.994;18.204;2023-03-23T05:07:52;12.40;;;9.70;;
57335;SDS011;43171;50.994;18.204;2023-03-23T05:17:36;15.20;;;11.40;;
57335;SDS011;43171;50.994;18.204;2023-03-23T05:27:23;13.80;;;9.70;;
57335;SDS011;43171;50.994;18.204;2023-03-23T05:37:08;17.90;;;10.90;;
57335;SDS011;43171;50.994;18.204;2023-03-23T05:46:52;16.20;;;11.30;;
57335;SDS011;43171;50.994;18.204;2023-03-23T05:54:09;24.30;;;14.60;;
57335;SDS011;43171;50.994;18.204;2023-03-23T06:03:53;19.20;;;12.90;;
57335;SDS011;43171;50.994;18.204;2023-03-23T06:13:41;17.80;;;11.50;;
57335;SDS011;43171;50.994;18.204;2023-03-23T06:23:28;23.90;;;14.60;;
57335;SDS011;43171;50.994;18.204;2023-03-23T06:33:11;6.80;;;4.30;;
57335;SDS011;43171;50.994;18.204;2023-03-23T06:42:54;10.00;;;6.70;;
57335;SDS011;43171;50.994;18.204;2023-03-23T06:52:40;8.20;;;5.70;;
57335;SDS011;43171;50.994;18.204;2023-03-23T07:02:24;19.20;;;7.10;;
57335;SDS011;43171;50.994;18.204;2023-03-23T07:12:09;13.10;;;7.00;;
57335;SDS011;43171;50.994;18.204;2023-03-23T07:14:35;12.20;;;8.20;;
57335;SDS011;43171;50.994;18.204;2023-03-23T07:24:18;8.30;;;6.40;;
57335;SDS011;43171;50.994;18.204;2023-03-23T07:34:02;7.00;;;6.30;;
57335;SDS011;43171;50.994;18.204;2023-03-23T07:43:45;23.90;;;6.30;;
57335;SDS011;43171;50.994;18.204;2023-03-23T07:53:30;8.30;;;6.50;;
57335;SDS011;43171;50.994;18.204;2023-03-23T08:03:14;7.30;;;6.30;;
57335;SDS011;43171;50.994;18.204;2023-03-23T08:20:17;6.50;;;5.80;;
57335;SDS011;43171;50.994;18.204;2023-03-23T08:30:09;7.80;;;5.20;;
57335;SDS011;43171;50.994;18.204;2023-03-23T08:39:54;9.20;;;5.40;;
57335;SDS011;43171;50.994;18.204;2023-03-23T08:49:41;14.70;;;11.20;;
57335;SDS011;43171;50.994;18.204;2023-03-23T08:59:25;5.40;;;4.50;;
57335;SDS011;43171;50.994;18.204;2023-03-23T09:09:11;6.00;;;4.90;;
57335;SDS011;43171;50.994;18.204;2023-03-23T09:18:54;4.70;;;3.70;;
57335;SDS011;43171;50.994;18.204;2023-03-23T09:28:42;6.80;;;4.00;;
57335;SDS011;43171;50.994;18.204;2023-03-23T09:38:28;3.60;;;3.30;;
57335;SDS011;43171;50.994;18.204;2023-03-23T09:48:46;4.30;;;3.90;;
57335;SDS011;43171;50.994;18.204;2023-03-23T09:58:52;7.60;;;3.60;;
57335;SDS011;43171;50.994;18.204;2023-03-23T10:08:45;2.70;;;2.30;;
57335;SDS011;43171;50.994;18.204;2023-03-23T10:19:12;4.60;;;2.70;;
57335;SDS011;43171;50.994;18.204;2023-03-23T10:39:27;5.60;;;2.70;;
57335;SDS011;43171;50.994;18.204;2023-03-23T10:49:36;1.20;;;0.90;;
57335;SDS011;43171;50.994;18.204;2023-03-23T11:00:01;1.40;;;1.20;;
57335;SDS011;43171;50.994;18.204;2023-03-23T11:10:15;1.00;;;1.00;;
57335;SDS011;43171;50.994;18.204;2023-03-23T11:20:44;2.90;;;2.20;;
57335;SDS011;43171;50.994;18.204;2023-03-23T11:30:47;1.30;;;1.20;;
57335;SDS011;43171;50.994;18.204;2023-03-23T11:40:43;3.20;;;1.30;;
57335;SDS011;43171;50.994;18.204;2023-03-23T11:50:57;0.80;;;0.80;;
57335;SDS011;43171;50.994;18.204;2023-03-23T12:11:35;0.70;;;0.60;;
57335;SDS011;43171;50.994;18.204;2023-03-23T12:43:43;1.50;;;1.40;;
57335;SDS011;43171;50.994;18.204;2023-03-23T12:54:14;1.10;;;1.00;;
57335;SDS011;43171;50.994;18.204;2023-03-23T13:04:36;1.40;;;1.20;;
57335;SDS011;43171;50.994;18.204;2023-03-23T13:35:45;1.20;;;1.10;;
57335;SDS011;43171;50.994;18.204;2023-03-23T13:45:42;1.10;;;0.80;;
57335;SDS011;43171;50.994;18.204;2023-03-23T13:56:13;1.60;;;0.90;;
57335;SDS011;43171;50.994;18.204;2023-03-23T14:06:16;2.30;;;1.60;;
57335;SDS011;43171;50.994;18.204;2023-03-23T14:16:19;1.90;;;1.20;;
57335;SDS011;43171;50.994;18.204;2023-03-23T14:26:17;2.20;;;1.40;;
57335;SDS011;43171;50.994;18.204;2023-03-23T14:33:42;2.30;;;1.70;;
57335;SDS011;43171;50.994;18.204;2023-03-23T14:43:31;2.50;;;1.90;;
57335;SDS011;43171;50.994;18.204;2023-03-23T14:53:51;3.90;;;2.10;;
57335;SDS011;43171;50.994;18.204;2023-03-23T15:03:44;1.90;;;1.80;;
57335;SDS011;43171;50.994;18.204;2023-03-23T15:13:49;2.10;;;1.60;;
57335;SDS011;43171;50.994;18.204;2023-03-23T15:23:47;5.30;;;1.60;;
57335;SDS011;43171;50.994;18.204;2023-03-23T15:41:28;3.00;;;2.00;;
57335;SDS011;43171;50.994;18.204;2023-03-23T15:51:26;3.50;;;2.70;;
57335;SDS011;43171;50.994;18.204;2023-03-23T16:01:21;8.50;;;3.80;;
57335;SDS011;43171;50.994;18.204;2023-03-23T16:11:25;11.90;;;6.50;;
57335;SDS011;43171;50.994;18.204;2023-03-23T16:21:20;14.00;;;4.70;;
57335;SDS011;43171;50.994;18.204;2023-03-23T16:31:04;23.50;;;6.90;;
57335;SDS011;43171;50.994;18.204;2023-03-23T16:40:48;9.40;;;4.20;;
57335;SDS011;43171;50.994;18.204;2023-03-23T16:50:32;19.00;;;6.70;;
57335;SDS011;43171;50.994;18.204;2023-03-23T17:00:17;6.70;;;4.40;;
57335;SDS011;43171;50.994;18.204;2023-03-23T17:10:08;11.10;;;6.40;;
57335;SDS011;43171;50.994;18.204;2023-03-23T17:19:51;19.30;;;6.00;;
57335;SDS011;43171;50.994;18.204;2023-03-23T17:29:34;4.00;;;3.20;;
57335;SDS011;43171;50.994;18.204;2023-03-23T17:39:16;9.00;;;5.40;;
57335;SDS011;43171;50.994;18.204;2023-03-23T17:48:59;3.90;;;3.50;;
57335;SDS011;43171;50.994;18.204;2023-03-23T17:58:41;7.30;;;5.00;;
57335;SDS011;43171;50.994;18.204;2023-03-23T18:08:28;52.40;;;3.80;;
57335;SDS011;43171;50.994;18.204;2023-03-23T18:18:12;5.80;;;2.30;;
57335;SDS011;43171;50.994;18.204;2023-03-23T18:27:56;2.50;;;2.30;;
57335;SDS011;43171;50.994;18.204;2023-03-23T18:37:42;2.50;;;1.80;;
57335;SDS011;43171;50.994;18.204;2023-03-23T18:47:31;2.00;;;1.70;;
57335;SDS011;43171;50.994;18.204;2023-03-23T18:57:17;2.30;;;1.60;;
57335;SDS011;43171;50.994;18.204;2023-03-23T19:07:04;2.60;;;1.50;;
57335;SDS011;43171;50.994;18.204;2023-03-23T19:16:47;8.20;;;2.60;;
57335;SDS011;43171;50.994;18.204;2023-03-23T19:26:41;3.40;;;2.80;;
57335;SDS011;43171;50.994;18.204;2023-03-23T19:36:25;15.70;;;3.80;;
57335;SDS011;43171;50.994;18.204;2023-03-23T19:46:10;3.00;;;2.80;;
57335;SDS011;43171;50.994;18.204;2023-03-23T19:55:54;14.20;;;3.80;;
57335;SDS011;43171;50.994;18.204;2023-03-23T20:05:36;3.00;;;2.50;;
57335;SDS011;43171;50.994;18.204;2023-03-23T20:15:19;3.30;;;2.90;;
57335;SDS011;43171;50.994;18.204;2023-03-23T20:25:04;5.80;;;3.30;;
57335;SDS011;43171;50.994;18.204;2023-03-23T20:34:49;3.10;;;2.60;;
57335;SDS011;43171;50.994;18.204;2023-03-23T20:44:37;14.80;;;4.90;;
57335;SDS011;43171;50.994;18.204;2023-03-23T20:54:25;6.50;;;4.40;;
57335;SDS011;43171;50.994;18.204;2023-03-23T21:04:13;4.40;;;3.10;;
57335;SDS011;43171;50.994;18.204;2023-03-23T21:14:01;6.10;;;4.20;;
57335;SDS011;43171;50.994;18.204;2023-03-23T21:23:44;6.70;;;3.50;;
57335;SDS011;43171;50.994;18.204;2023-03-23T21:33:32;7.10;;;4.70;;
57335;SDS011;43171;50.994;18.204;2023-03-23T21:43:17;6.70;;;4.60;;
57335;SDS011;43171;50.994;18.204;2023-03-23T21:53:06;5.40;;;4.10;;
57335;SDS011;43171;50.994;18.204;2023-03-23T22:02:51;11.90;;;3.40;;
57335;SDS011;43171;50.994;18.204;2023-03-23T22:12:36;3.60;;;2.30;;
57335;SDS011;43171;50.994;18.204;2023-03-23T22:22:21;1.80;;;1.70;;
57335;SDS011;43171;50.994;18.204;2023-03-23T22:32:03;2.90;;;2.60;;
57335;SDS011;43171;50.994;18.204;2023-03-23T22:41:46;4.60;;;3.10;;
57335;SDS011;43171;50.994;18.204;2023-03-23T22:51:30;2.40;;;2.20;;
57335;SDS011;43171;50.994;18.204;2023-03-23T23:01:14;4.40;;;3.00;;
57335;SDS011;43171;50.994;18.204;2023-03-23T23:11:02;4.50;;;3.10;;
57335;SDS011;43171;50.994;18.204;2023-03-23T23:20:48;5.80;;;3.00;;
57335;SDS011;43171;50.994;18.204;2023-03-23T23:30:32;13.20;;;5.10;;
57335;SDS011;43171;50.994;18.204;2023-03-23T23:40:16;14.50;;;6.50;;
57335;SDS011;43171;50.994;18.204;2023-03-23T23:50:07;6.10;;;4.20;;
57335;SDS011;43171;50.994;18.204;2023-03-23T23:59:52;4.10;;;2.90;;
